createdAt,value
2022-11-22T00:00:34.036Z,10.62
2022-11-22T00:03:40.428Z,10.62
2022-11-22T00:06:47.454Z,10.55
2022-11-22T00:09:54.538Z,10.53
2022-11-22T00:13:00.605Z,10.50
2022-11-22T00:16:15.624Z,10.47
2022-11-22T00:19:21.190Z,10.45
2022-11-22T00:22:27.734Z,10.46
2022-11-22T00:25:34.474Z,10.45
2022-11-22T00:28:40.121Z,10.45
2022-11-22T00:31:45.731Z,10.44
2022-11-22T00:34:51.515Z,10.45
2022-11-22T00:37:57.296Z,10.46
2022-11-22T00:41:04.392Z,10.45
2022-11-22T00:44:10.766Z,10.45
2022-11-22T00:47:16.586Z,10.51
2022-11-22T00:50:24.085Z,10.59
2022-11-22T00:53:31.243Z,10.68
2022-11-22T00:56:40.503Z,10.76
2022-11-22T00:59:48.938Z,10.80
2022-11-22T01:02:55.861Z,10.88
2022-11-22T01:06:02.760Z,10.91
2022-11-22T01:09:10.764Z,10.96
2022-11-22T01:12:17.196Z,11.00
2022-11-22T01:15:24.193Z,11.07
2022-11-22T01:18:30.404Z,11.11
2022-11-22T01:21:36.188Z,11.14
2022-11-22T01:24:42.249Z,11.17
2022-11-22T01:27:50.819Z,11.20
2022-11-22T01:30:57.687Z,11.22
2022-11-22T01:34:03.789Z,11.25
2022-11-22T01:37:09.403Z,11.26
2022-11-22T01:40:14.784Z,11.28
2022-11-22T01:43:24.742Z,11.31
2022-11-22T01:46:41.549Z,11.35
2022-11-22T01:50:15.881Z,11.36
2022-11-22T01:53:25.284Z,11.03
2022-11-22T01:56:32.124Z,10.51
2022-11-22T01:59:38.983Z,10.15
2022-11-22T02:02:45.698Z,9.87
2022-11-22T02:05:51.487Z,9.62
2022-11-22T02:09:10.941Z,9.49
2022-11-22T02:12:18.368Z,9.33
2022-11-22T02:15:25.497Z,9.22
2022-11-22T02:18:32.256Z,9.12
2022-11-22T02:21:38.144Z,9.06
2022-11-22T02:24:50.929Z,9.00
2022-11-22T02:27:56.358Z,8.87
2022-11-22T02:31:01.891Z,8.75
2022-11-22T02:34:11.110Z,8.65
2022-11-22T02:37:17.686Z,8.58
2022-11-22T02:40:26.046Z,8.52
2022-11-22T02:43:38.059Z,8.47
2022-11-22T02:46:43.478Z,8.41
2022-11-22T02:49:48.985Z,8.37
2022-11-22T02:52:54.772Z,8.26
2022-11-22T02:56:01.179Z,8.17
2022-11-22T02:59:07.391Z,8.13
2022-11-22T03:02:13.994Z,8.09
2022-11-22T03:05:20.963Z,7.95
2022-11-22T03:08:26.968Z,7.82
2022-11-22T03:11:33.650Z,7.76
2022-11-22T03:14:39.114Z,7.68
2022-11-22T03:17:46.534Z,7.58
2022-11-22T03:20:52.318Z,7.51
2022-11-22T03:23:59.860Z,7.45
2022-11-22T03:27:04.709Z,7.40
2022-11-22T03:30:10.952Z,7.33
2022-11-22T03:33:17.974Z,7.25
2022-11-22T03:36:23.241Z,7.19
2022-11-22T03:39:29.391Z,7.13
2022-11-22T03:42:36.851Z,7.05
2022-11-22T03:45:42.558Z,6.88
2022-11-22T03:48:49.220Z,6.71
2022-11-22T03:51:56.203Z,6.58
2022-11-22T03:55:01.963Z,6.44
2022-11-22T03:58:08.603Z,6.33
2022-11-22T04:01:16.786Z,6.27
2022-11-22T04:04:21.453Z,6.20
2022-11-22T04:07:26.601Z,6.15
2022-11-22T04:10:32.714Z,6.16
2022-11-22T04:13:55.648Z,6.16
2022-11-22T04:17:02.416Z,6.14
2022-11-22T04:20:26.037Z,6.12
2022-11-22T04:23:34.503Z,6.06
2022-11-22T04:26:41.907Z,6.00
2022-11-22T04:29:51.261Z,5.95
2022-11-22T04:32:58.867Z,5.92
2022-11-22T04:36:11.875Z,5.87
2022-11-22T04:39:13.632Z,5.78
2022-11-22T04:42:38.705Z,5.71
2022-11-22T04:45:45.781Z,5.56
2022-11-22T04:48:52.558Z,5.39
2022-11-22T04:52:18.023Z,5.29
2022-11-22T04:55:23.859Z,5.20
2022-11-22T04:58:29.870Z,5.12
2022-11-22T05:01:36.392Z,5.05
2022-11-22T06:29:44.959Z,4.71
2022-11-22T06:32:54.703Z,4.74
2022-11-22T06:36:01.664Z,4.72
2022-11-22T06:39:11.678Z,4.70
2022-11-22T06:42:18.557Z,4.69
2022-11-22T06:45:26.601Z,4.65
2022-11-22T06:48:31.662Z,4.57
2022-11-22T06:51:41.679Z,4.52
2022-11-22T06:54:46.503Z,4.47
2022-11-22T06:57:52.593Z,4.44
2022-11-22T07:00:58.139Z,4.39
2022-11-22T07:04:04.949Z,4.35
2022-11-22T07:07:13.262Z,4.30
2022-11-22T07:10:22.567Z,4.34
2022-11-22T07:13:27.767Z,4.36
2022-11-22T07:16:35.164Z,4.42
2022-11-22T07:19:36.750Z,4.47
2022-11-22T07:22:23.431Z,4.54
2022-11-22T07:25:16.906Z,4.63
2022-11-22T07:28:09.022Z,4.72
2022-11-22T07:31:20.172Z,4.76
2022-11-22T07:34:27.098Z,4.74
2022-11-22T07:37:32.954Z,4.80
2022-11-22T07:40:39.349Z,4.81
2022-11-22T07:43:44.576Z,4.78
2022-11-22T07:46:51.305Z,4.71
2022-11-22T07:49:57.370Z,4.67
2022-11-22T07:53:13.332Z,4.63
2022-11-22T07:56:22.805Z,4.59
2022-11-22T07:59:28.603Z,4.57
2022-11-22T08:02:39.712Z,4.56
2022-11-22T08:05:49.761Z,4.57
2022-11-22T08:09:01.734Z,4.60
2022-11-22T08:12:05.093Z,4.63
2022-11-22T08:15:10.814Z,4.63
2022-11-22T08:18:26.616Z,4.59
2022-11-22T08:21:35.353Z,4.62
2022-11-22T08:24:42.320Z,4.63
2022-11-22T08:27:49.621Z,4.58
2022-11-22T08:30:56.430Z,4.54
2022-11-22T08:34:01.990Z,4.48
2022-11-22T08:37:08.018Z,4.35
2022-11-22T08:40:18.958Z,4.28
2022-11-22T08:43:31.508Z,4.19
2022-11-22T08:46:44.997Z,4.17
2022-11-22T08:49:50.403Z,4.10
2022-11-22T08:52:56.659Z,4.07
2022-11-22T08:56:02.199Z,4.12
2022-11-22T08:59:10.517Z,4.14
2022-11-22T09:02:17.954Z,4.17
2022-11-22T09:05:24.640Z,4.19
2022-11-22T09:08:36.063Z,4.21
2022-11-22T09:11:41.011Z,4.22
2022-11-22T09:14:48.409Z,4.22
2022-11-22T09:18:02.525Z,4.24
2022-11-22T09:21:17.503Z,4.20
2022-11-22T09:24:26.194Z,4.19
2022-11-22T09:27:31.895Z,4.12
2022-11-22T09:30:39.662Z,4.10
2022-11-22T09:33:46.011Z,4.05
2022-11-22T09:36:52.699Z,3.98
2022-11-22T09:40:02.582Z,3.93
2022-11-22T09:43:27.424Z,3.93
2022-11-22T09:46:42.079Z,4.00
2022-11-22T09:50:13.422Z,4.03
2022-11-22T09:53:40.303Z,4.06
2022-11-22T09:56:46.129Z,4.07
2022-11-22T09:59:51.886Z,4.03
2022-11-22T10:03:05.524Z,3.98
2022-11-22T10:06:16.027Z,3.93
2022-11-22T10:09:47.431Z,3.90
2022-11-22T10:13:04.538Z,3.87
2022-11-22T10:16:34.447Z,3.85
2022-11-22T10:19:46.054Z,3.84
2022-11-22T10:22:52.789Z,3.82
2022-11-22T10:26:05.257Z,3.77
2022-11-22T10:29:36.120Z,3.73
2022-11-22T10:32:57.455Z,3.65
2022-11-22T10:36:11.073Z,3.57
2022-11-22T10:39:35.044Z,3.54
2022-11-22T10:43:16.209Z,3.49
2022-11-22T10:46:43.566Z,3.45
2022-11-22T10:50:33.200Z,3.43
2022-11-22T10:54:07.746Z,3.44
2022-11-22T10:57:30.529Z,3.53
2022-11-22T11:00:38.587Z,3.56
2022-11-22T11:03:53.485Z,3.54
2022-11-22T11:07:13.004Z,3.60
2022-11-22T11:10:32.284Z,3.62
2022-11-22T11:13:45.273Z,3.57
2022-11-22T11:16:50.906Z,3.54
2022-11-22T11:19:57.380Z,3.45
2022-11-22T11:23:18.674Z,3.41
2022-11-22T11:26:10.405Z,3.44
2022-11-22T11:29:38.437Z,3.46
2022-11-22T11:32:46.266Z,3.43
2022-11-22T11:35:52.218Z,3.35
2022-11-22T11:39:08.348Z,3.27
2022-11-22T11:42:13.544Z,3.22
2022-11-22T11:45:43.659Z,3.21
2022-11-22T11:48:52.802Z,3.24
2022-11-22T11:51:59.466Z,3.22
2022-11-22T11:55:08.884Z,3.18
2022-11-22T11:58:17.473Z,3.13
2022-11-22T12:01:27.927Z,3.08
2022-11-22T12:04:44.131Z,3.05
2022-11-22T12:07:54.920Z,3.06
2022-11-22T12:11:25.653Z,3.07
2022-11-22T12:14:49.065Z,3.06
2022-11-22T12:17:41.893Z,3.09
2022-11-22T12:21:22.418Z,3.12
2022-11-22T12:25:09.359Z,3.09
2022-11-22T12:27:52.645Z,3.08
2022-11-22T12:31:02.060Z,3.07
2022-11-22T12:34:29.477Z,3.09
2022-11-22T12:37:51.230Z,3.06
2022-11-22T12:41:04.348Z,3.01
2022-11-22T12:44:12.528Z,2.98
2022-11-22T12:47:25.649Z,2.99
2022-11-22T12:50:55.740Z,3.00
2022-11-22T12:54:03.551Z,2.97
2022-11-22T12:57:12.519Z,2.90
2022-11-22T13:00:31.915Z,2.90
2022-11-22T13:03:42.106Z,2.85
2022-11-22T13:06:56.192Z,2.80
2022-11-22T13:10:15.165Z,2.78
2022-11-22T13:13:22.781Z,2.74
2022-11-22T13:16:30.612Z,2.69
2022-11-22T13:19:38.716Z,2.66
2022-11-22T13:23:23.754Z,2.65
2022-11-22T13:26:55.912Z,2.68
2022-11-22T13:30:13.730Z,2.68
2022-11-22T13:33:40.778Z,2.65
2022-11-22T13:36:55.596Z,2.66
2022-11-22T13:40:02.245Z,2.66
2022-11-22T13:43:32.412Z,2.67
2022-11-22T13:47:07.740Z,2.68
2022-11-22T13:50:12.978Z,2.66
2022-11-22T13:53:41.838Z,2.59
2022-11-22T13:57:01.080Z,2.56
2022-11-22T14:00:29.696Z,2.52
2022-11-22T14:03:38.842Z,2.45
2022-11-22T14:06:46.706Z,2.40
2022-11-22T14:10:05.742Z,2.40
2022-11-22T14:13:34.864Z,2.41
2022-11-22T14:17:00.403Z,2.43
2022-11-22T14:20:47.155Z,2.48
2022-11-22T14:24:17.925Z,2.53
2022-11-22T14:27:44.014Z,2.62
2022-11-22T14:31:05.943Z,2.63
2022-11-22T14:34:39.134Z,2.62
2022-11-22T14:37:48.719Z,2.59
2022-11-22T14:40:59.668Z,2.56
2022-11-22T14:44:23.579Z,2.55
2022-11-22T14:47:29.500Z,2.54
2022-11-22T14:50:54.240Z,2.53
2022-11-22T14:54:06.474Z,2.53
2022-11-22T14:57:15.245Z,2.50
2022-11-22T15:00:45.359Z,2.46
2022-11-22T15:09:14.564Z,2.39
2022-11-22T15:09:15.569Z,2.43
2022-11-22T15:11:36.499Z,2.35
2022-11-22T15:57:13.695Z,2.04
2022-11-22T16:00:38.453Z,1.96
2022-11-22T16:03:51.729Z,1.85
2022-11-22T16:06:59.207Z,1.78
2022-11-22T16:10:05.398Z,1.78
2022-11-22T16:13:12.474Z,1.77
2022-11-22T16:16:33.115Z,1.76
2022-11-22T16:19:40.259Z,1.74
2022-11-22T16:22:47.005Z,1.69
2022-11-22T16:26:02.144Z,1.66
2022-11-22T16:29:08.724Z,1.68
2022-11-22T16:32:19.881Z,1.69
2022-11-22T16:35:30.325Z,1.73
2022-11-22T16:38:36.214Z,1.76
2022-11-22T16:41:44.044Z,1.75
2022-11-22T16:44:50.807Z,1.76
2022-11-22T16:48:29.829Z,1.79
2022-11-22T16:51:14.283Z,1.84
2022-11-22T16:54:24.765Z,1.91
2022-11-22T16:57:35.750Z,1.90
2022-11-22T17:00:46.641Z,1.88
2022-11-22T17:03:52.847Z,1.84
2022-11-22T17:06:59.173Z,1.74
2022-11-22T17:10:04.614Z,1.66
2022-11-22T17:13:11.100Z,1.59
2022-11-22T17:16:18.290Z,1.54
2022-11-22T17:22:32.728Z,1.53
2022-11-22T17:25:39.115Z,1.55
2022-11-22T17:28:45.454Z,1.54
2022-11-22T17:31:51.537Z,1.54
2022-11-22T17:34:59.745Z,1.54
2022-11-22T17:38:11.338Z,1.60
2022-11-22T17:41:17.343Z,1.62
2022-11-22T17:44:27.295Z,1.59
2022-11-22T17:47:34.399Z,1.54
2022-11-22T17:50:40.870Z,1.54
2022-11-22T17:53:46.880Z,1.54
2022-11-22T17:56:53.807Z,1.52
2022-11-22T18:00:02.082Z,1.54
2022-11-22T18:03:09.050Z,1.51
2022-11-22T18:06:16.664Z,1.47
2022-11-22T18:09:22.523Z,1.45
2022-11-22T18:12:29.297Z,1.43
2022-11-22T18:15:36.279Z,1.40
2022-11-22T18:19:00.036Z,1.38
2022-11-22T18:21:53.371Z,1.39
2022-11-22T18:24:59.331Z,1.38
2022-11-22T18:28:05.074Z,1.37
2022-11-22T18:31:11.158Z,1.38
2022-11-22T18:34:18.818Z,1.42
2022-11-22T18:37:25.029Z,1.46
2022-11-22T18:40:30.852Z,1.45
2022-11-22T18:43:36.003Z,1.44
2022-11-22T18:46:42.993Z,1.41
2022-11-22T18:49:49.194Z,1.37
2022-11-22T18:52:56.705Z,1.33
2022-11-22T18:56:04.966Z,1.33
2022-11-22T18:59:12.406Z,1.32
2022-11-22T19:02:19.224Z,1.32
2022-11-22T19:05:24.749Z,1.33
2022-11-22T19:08:32.310Z,1.35
2022-11-22T19:11:39.772Z,1.35
2022-11-22T19:14:45.508Z,1.32
2022-11-22T19:17:57.005Z,1.31
2022-11-22T19:21:01.750Z,1.31
2022-11-22T19:24:08.209Z,1.33
2022-11-22T19:27:13.698Z,1.34
2022-11-22T19:30:24.216Z,1.33
2022-11-22T19:33:31.368Z,1.36
2022-11-22T19:36:39.122Z,1.35
2022-11-22T19:39:45.333Z,1.35
2022-11-22T19:42:52.782Z,1.35
2022-11-22T19:45:59.548Z,1.33
2022-11-22T19:49:10.991Z,1.30
2022-11-22T19:52:17.884Z,1.26
2022-11-22T19:55:24.555Z,1.21
2022-11-22T19:58:29.986Z,1.22
2022-11-22T20:01:38.509Z,1.26
2022-11-22T20:04:45.350Z,1.27
2022-11-22T20:07:51.292Z,1.27
2022-11-22T20:10:57.177Z,1.28
2022-11-22T20:14:06.395Z,1.29
2022-11-22T20:17:13.464Z,1.30
2022-11-22T20:20:20.405Z,1.32
2022-11-22T20:23:27.660Z,1.37
2022-11-22T20:26:33.633Z,1.41
2022-11-22T20:29:39.025Z,1.47
2022-11-22T20:32:46.095Z,1.53
2022-11-22T20:35:53.410Z,1.57
2022-11-22T20:39:06.973Z,1.62
2022-11-22T20:42:33.612Z,1.64
2022-11-22T20:45:21.195Z,1.65
2022-11-22T20:48:28.131Z,1.66
2022-11-22T20:51:36.887Z,1.65
2022-11-22T20:54:43.938Z,1.65
2022-11-22T20:57:51.673Z,1.66
2022-11-22T21:00:56.673Z,1.65
2022-11-22T21:04:02.072Z,1.66
2022-11-22T21:07:10.037Z,1.64
2022-11-22T21:10:17.333Z,1.64
2022-11-22T21:13:24.265Z,1.64
2022-11-22T21:16:41.959Z,1.65
2022-11-22T21:19:49.399Z,1.67
2022-11-22T21:22:57.930Z,1.66
2022-11-22T21:26:04.475Z,1.63
2022-11-22T21:29:16.234Z,1.65
2022-11-22T21:32:20.264Z,1.68
2022-11-22T21:35:26.408Z,1.73
2022-11-22T21:38:36.290Z,1.73
2022-11-22T21:41:42.941Z,1.74
2022-11-22T21:44:49.060Z,1.78
2022-11-22T21:47:56.368Z,1.78
2022-11-22T21:51:04.567Z,1.78
2022-11-22T21:54:15.051Z,1.76
2022-11-22T21:57:21.544Z,1.79
2022-11-22T22:00:31.466Z,1.82
2022-11-22T22:03:37.886Z,1.83
2022-11-22T22:06:46.249Z,1.84
2022-11-22T22:09:52.530Z,1.85
2022-11-22T22:13:00.945Z,1.84
2022-11-22T22:16:18.275Z,1.82
2022-11-22T22:19:25.779Z,1.83
2022-11-22T22:22:33.501Z,1.85
2022-11-22T22:25:40.239Z,1.87
2022-11-22T22:28:46.575Z,1.92
2022-11-22T22:31:53.046Z,1.95
2022-11-22T22:34:59.269Z,1.96
2022-11-22T22:38:05.662Z,1.94
2022-11-22T22:41:15.033Z,1.89
2022-11-22T22:44:22.976Z,1.88
2022-11-22T22:47:28.607Z,1.88
2022-11-22T22:50:35.698Z,1.90
2022-11-22T22:53:41.916Z,1.89
2022-11-22T22:56:49.970Z,1.86
2022-11-22T22:59:56.752Z,1.83
2022-11-22T23:03:03.467Z,1.77
2022-11-22T23:06:10.070Z,1.71
2022-11-22T23:09:16.002Z,1.66
2022-11-22T23:12:24.448Z,1.64
2022-11-22T23:15:56.513Z,1.63
2022-11-22T23:18:38.711Z,1.62
2022-11-22T23:21:44.475Z,1.60
2022-11-22T23:24:49.724Z,1.60
2022-11-22T23:27:56.630Z,1.62
2022-11-22T23:31:04.524Z,1.66
2022-11-22T23:34:10.119Z,1.70
2022-11-22T23:37:15.803Z,1.72
2022-11-22T23:40:24.062Z,1.72
2022-11-22T23:43:30.527Z,1.72
2022-11-22T23:46:37.801Z,1.72
2022-11-22T23:49:44.169Z,1.71
2022-11-22T23:52:49.163Z,1.70
2022-11-22T23:55:56.190Z,1.69
2022-11-22T23:59:02.389Z,1.67
